createdAt,value
2023-03-28T00:00:25.956Z,98321.41
2023-03-28T00:01:29.769Z,98320.77
2023-03-28T00:02:32.014Z,98326.13
2023-03-28T00:03:37.115Z,98322.61
2023-03-28T00:04:41.046Z,98327.16
2023-03-28T00:05:46.839Z,98320.97
2023-03-28T00:06:52.127Z,98317.46
2023-03-28T00:07:55.853Z,98321.14
2023-03-28T00:08:58.086Z,98329.17
2023-03-28T00:10:00.151Z,98329.17
2023-03-28T00:11:12.977Z,98324.84
2023-03-28T00:12:17.356Z,98324.02
2023-03-28T00:13:22.109Z,98330.20
2023-03-28T00:14:25.141Z,98333.88
2023-03-28T00:15:27.375Z,98336.55
2023-03-28T00:16:33.064Z,98330.37
2023-03-28T00:17:37.186Z,98323.38
2023-03-28T00:18:42.989Z,98315.35
2023-03-28T00:20:01.097Z,98326.22
2023-03-28T00:21:05.731Z,98323.75
2023-03-28T00:22:10.392Z,98321.91
2023-03-28T00:23:15.204Z,98324.58
2023-03-28T00:25:33.389Z,98311.91
2023-03-28T00:26:36.727Z,98317.92
2023-03-28T00:27:38.897Z,98317.09
2023-03-28T00:28:40.950Z,98316.09
2023-03-28T00:29:48.700Z,98314.25
2023-03-28T00:30:53.483Z,98311.57
2023-03-28T00:31:55.833Z,98312.58
2023-03-28T00:34:13.538Z,98312.11
2023-03-28T00:35:17.900Z,98311.27
2023-03-28T00:36:27.023Z,98310.09
2023-03-28T00:37:34.467Z,98303.08
2023-03-28T00:38:41.097Z,98314.41
2023-03-28T00:39:44.394Z,98314.41
2023-03-28T00:40:46.841Z,98303.71
2023-03-28T00:41:49.144Z,98307.42
2023-03-28T00:42:51.340Z,98303.71
2023-03-28T00:43:55.011Z,98307.22
2023-03-28T00:44:57.992Z,98308.06
2023-03-28T00:46:09.089Z,98298.36
2023-03-28T00:47:39.358Z,98311.73
2023-03-28T00:48:45.233Z,98297.36
2023-03-28T00:49:49.086Z,98302.52
2023-03-28T00:50:52.496Z,98308.06
2023-03-28T00:52:00.410Z,98307.22
2023-03-28T00:53:17.772Z,98306.39
2023-03-28T00:54:21.273Z,98299.40
2023-03-28T00:56:37.393Z,98301.58
2023-03-28T00:57:40.106Z,98293.58
2023-03-28T00:58:44.139Z,98311.27
2023-03-28T00:59:47.053Z,98295.22
2023-03-28T01:00:50.040Z,98304.91
2023-03-28T01:01:53.328Z,98290.70
2023-03-28T01:02:56.575Z,98297.89
2023-03-28T01:03:59.769Z,98294.41
2023-03-28T01:05:02.580Z,98282.05
2023-03-28T01:06:07.937Z,98290.91
2023-03-28T01:07:12.550Z,98287.39
2023-03-28T01:08:24.765Z,98281.20
2023-03-28T01:09:28.859Z,98284.72
2023-03-28T01:10:33.234Z,98282.05
2023-03-28T01:11:37.354Z,98282.24
2023-03-28T01:12:42.126Z,98280.38
2023-03-28T01:13:49.360Z,98276.89
2023-03-28T01:14:52.409Z,98284.08
2023-03-28T01:15:55.307Z,98273.38
2023-03-28T01:16:57.852Z,98274.39
2023-03-28T01:18:01.343Z,98278.91
2023-03-28T01:19:05.749Z,98284.25
2023-03-28T01:20:32.466Z,98274.59
2023-03-28T01:22:03.173Z,98279.94
2023-03-28T01:24:40.776Z,98271.25
2023-03-28T01:26:13.061Z,98270.44
2023-03-28T01:27:31.687Z,98274.75
2023-03-28T01:28:59.042Z,98271.91
2023-03-28T01:30:13.061Z,98269.23
2023-03-28T01:31:56.984Z,98263.05
2023-03-28T01:35:09.406Z,98251.89
2023-03-28T01:36:35.556Z,98255.59
2023-03-28T01:37:47.615Z,98248.20
2023-03-28T01:39:08.909Z,98248.20
2023-03-28T01:41:43.245Z,98250.22
2023-03-28T01:43:10.528Z,98252.25
2023-03-28T01:44:22.456Z,98252.25
2023-03-28T01:45:44.991Z,98265.26
2023-03-28T01:47:02.742Z,98254.77
2023-03-28T01:48:09.105Z,98253.92
2023-03-28T01:50:49.559Z,98248.28
2023-03-28T01:52:11.070Z,98247.47
2023-03-28T01:53:29.198Z,98248.11
2023-03-28T01:55:01.034Z,98236.41
2023-03-28T01:58:13.279Z,98232.06
2023-03-28T02:00:44.361Z,98233.91
2023-03-28T02:01:53.364Z,98225.08
2023-03-28T02:02:59.447Z,98226.72
2023-03-28T02:04:20.377Z,98227.55
2023-03-28T02:05:15.808Z,98228.39
2023-03-28T02:06:20.614Z,98248.11
2023-03-28T02:07:24.754Z,98256.13
2023-03-28T02:08:40.463Z,98236.58
2023-03-28T02:09:48.336Z,98250.98
2023-03-28T02:11:02.585Z,98239.45
2023-03-28T02:12:15.551Z,98234.10
2023-03-28T02:14:53.422Z,98227.45
2023-03-28T02:15:59.012Z,98238.34
2023-03-28T02:17:06.453Z,98220.62
2023-03-28T02:18:38.547Z,98216.12
2023-03-28T02:20:03.362Z,98229.12
2023-03-28T02:21:11.102Z,98224.61
2023-03-28T02:23:44.492Z,98210.94
2023-03-28T02:25:06.429Z,98210.13
2023-03-28T02:26:24.593Z,98222.50
2023-03-28T02:27:28.681Z,98229.69
2023-03-28T02:28:36.438Z,98229.69
2023-03-28T02:29:43.919Z,98228.02
2023-03-28T02:30:48.348Z,98217.95
2023-03-28T02:31:51.075Z,98220.00
2023-03-28T02:33:05.215Z,98206.62
2023-03-28T02:34:09.086Z,98202.28
2023-03-28T02:35:11.328Z,98204.79
2023-03-28T02:36:22.814Z,98198.61
2023-03-28T02:37:37.740Z,98191.59
2023-03-28T02:39:11.107Z,98206.62
2023-03-28T02:40:48.119Z,98199.44
2023-03-28T02:42:16.630Z,98202.12
2023-03-28T02:45:16.468Z,98198.77
2023-03-28T02:46:31.607Z,98190.78
2023-03-28T02:47:40.790Z,98190.12
2023-03-28T02:48:55.624Z,98182.09
2023-03-28T02:52:38.957Z,98185.50
2023-03-28T02:55:13.482Z,98177.69
2023-03-28T02:56:20.802Z,98186.34
2023-03-28T02:57:37.055Z,98178.98
2023-03-28T03:00:18.322Z,98171.13
2023-03-28T03:01:22.831Z,98172.98
2023-03-28T03:02:25.292Z,98174.65
2023-03-28T03:03:27.751Z,98175.48
2023-03-28T03:04:30.924Z,98175.65
2023-03-28T03:05:33.832Z,98178.16
2023-03-28T03:06:36.370Z,98170.14
2023-03-28T03:07:38.836Z,98174.65
2023-03-28T03:08:40.900Z,98174.65
2023-03-28T03:09:45.916Z,98167.46
2023-03-28T03:10:48.201Z,98166.63
2023-03-28T03:11:50.391Z,98174.65
2023-03-28T03:12:53.066Z,98173.81
2023-03-28T03:13:56.090Z,98162.28
2023-03-28T03:14:58.727Z,98159.61
2023-03-28T03:16:19.790Z,98156.13
2023-03-28T03:17:22.694Z,98162.28
2023-03-28T03:18:24.880Z,98156.94
2023-03-28T03:19:27.527Z,98152.62
2023-03-28T03:20:30.485Z,98145.44
2023-03-28T03:21:32.658Z,98143.57
2023-03-28T03:22:35.247Z,98143.41
2023-03-28T03:23:37.425Z,98155.56
2023-03-28T03:24:40.840Z,98155.36
2023-03-28T03:25:43.534Z,98163.02
2023-03-28T03:26:50.707Z,98154.63
2023-03-28T03:27:53.004Z,98144.39
2023-03-28T03:28:55.345Z,98152.05
2023-03-28T03:29:59.487Z,98151.67
2023-03-28T03:31:04.430Z,98156.45
2023-03-28T03:32:23.204Z,98142.08
2023-03-28T03:33:27.212Z,98144.34
2023-03-28T03:34:32.272Z,98133.48
2023-03-28T03:35:34.533Z,98140.49
2023-03-28T03:36:39.006Z,98138.83
2023-03-28T03:37:42.346Z,98129.80
2023-03-28T03:38:46.516Z,98135.14
2023-03-28T03:39:50.918Z,98130.80
2023-03-28T03:40:55.291Z,98135.31
2023-03-28T03:41:57.477Z,98139.00
2023-03-28T03:43:00.017Z,98140.03
2023-03-28T03:44:03.345Z,98134.05
2023-03-28T03:45:07.295Z,98139.57
2023-03-28T03:46:10.327Z,98130.71
2023-03-28T03:47:14.614Z,98128.23
2023-03-28T03:48:16.675Z,98121.23
2023-03-28T03:49:18.849Z,98116.08
2023-03-28T03:50:22.331Z,98125.94
2023-03-28T03:51:24.600Z,98128.81
2023-03-28T03:52:28.739Z,98120.97
2023-03-28T03:53:33.863Z,98123.84
2023-03-28T03:54:38.442Z,98123.01
2023-03-28T03:55:41.526Z,98131.20
2023-03-28T03:56:43.825Z,98129.56
2023-03-28T03:57:46.710Z,98130.56
2023-03-28T03:58:49.167Z,98128.92
2023-03-28T03:59:51.862Z,98125.42
2023-03-28T04:00:55.786Z,98125.59
2023-03-28T04:02:00.443Z,98124.75
2023-03-28T04:03:24.539Z,98124.13
2023-03-28T04:04:22.726Z,98124.95
2023-03-28T04:05:32.436Z,98122.08
2023-03-28T04:06:37.339Z,98120.44
2023-03-28T04:07:41.324Z,98117.94
2023-03-28T04:09:54.526Z,98107.80
2023-03-28T04:10:58.744Z,98115.00
2023-03-28T04:12:02.205Z,98113.16
2023-03-28T04:13:05.341Z,98106.81
2023-03-28T04:14:08.815Z,98107.62
2023-03-28T04:15:11.292Z,98112.80
2023-03-28T04:17:28.477Z,98111.68
2023-03-28T04:18:32.762Z,98105.52
2023-03-28T04:19:35.980Z,98099.16
2023-03-28T04:20:38.174Z,98098.13
2023-03-28T04:21:46.171Z,98102.67
2023-03-28T04:22:48.402Z,98104.52
2023-03-28T04:23:52.441Z,98092.98
2023-03-28T04:24:59.315Z,98096.49
2023-03-28T04:26:03.614Z,98097.50
2023-03-28T04:27:17.145Z,98095.02
2023-03-28T04:28:22.563Z,98087.81
2023-03-28T04:29:30.419Z,98092.35
2023-03-28T04:31:50.801Z,98083.19
2023-03-28T04:33:04.028Z,98086.75
2023-03-28T04:34:08.212Z,98083.88
2023-03-28T04:35:12.213Z,98080.36
2023-03-28T04:36:15.580Z,98094.56
2023-03-28T04:37:19.672Z,98087.37
2023-03-28T04:38:27.972Z,98082.03
2023-03-28T04:39:34.212Z,98074.02
2023-03-28T04:40:55.621Z,98078.53
2023-03-28T04:41:59.820Z,98075.66
2023-03-28T04:43:04.150Z,98068.47
2023-03-28T04:44:08.599Z,98077.32
2023-03-28T04:45:12.673Z,98072.81
2023-03-28T04:46:16.417Z,98072.81
2023-03-28T04:47:19.390Z,98077.12
2023-03-28T04:48:23.012Z,98077.95
2023-03-28T04:49:25.875Z,98077.12
2023-03-28T04:50:28.201Z,98077.95
2023-03-28T04:51:31.591Z,98076.11
2023-03-28T04:52:34.936Z,98068.09
2023-03-28T04:53:37.081Z,98060.08
2023-03-28T04:54:57.900Z,98066.25
2023-03-28T04:56:00.701Z,98055.36
2023-03-28T04:57:05.078Z,98059.91
2023-03-28T04:58:19.900Z,98062.58
2023-03-28T04:59:23.035Z,98065.25
2023-03-28T05:00:27.624Z,98051.89
2023-03-28T05:01:32.845Z,98066.25
2023-03-28T05:02:38.016Z,98062.58
2023-03-28T05:03:41.389Z,98067.92
2023-03-28T05:04:44.785Z,98064.41
2023-03-28T05:05:49.310Z,98059.91
2023-03-28T05:06:53.554Z,98061.74
2023-03-28T05:07:59.715Z,98063.38
2023-03-28T05:09:02.117Z,98060.70
2023-03-28T05:10:07.140Z,98055.36
2023-03-28T05:11:11.217Z,98060.70
2023-03-28T05:12:14.517Z,98057.23
2023-03-28T05:13:30.688Z,98066.89
2023-03-28T05:14:37.755Z,98058.03
2023-03-28T05:15:42.596Z,98055.36
2023-03-28T05:16:59.340Z,98059.91
2023-03-28T05:18:21.577Z,98062.38
2023-03-28T05:19:23.634Z,98060.70
2023-03-28T05:20:32.218Z,98065.25
2023-03-28T05:21:35.966Z,98067.09
2023-03-28T05:22:38.207Z,98061.08
2023-03-28T05:23:40.954Z,98069.10
2023-03-28T05:24:45.041Z,98061.91
2023-03-28T05:25:51.075Z,98062.95
2023-03-28T05:26:53.799Z,98062.95
2023-03-28T05:27:58.334Z,98054.94
2023-03-28T05:29:01.165Z,98063.75
2023-03-28T05:31:22.321Z,98049.09
2023-03-28T05:32:28.412Z,98055.30
2023-03-28T05:33:32.395Z,98055.30
2023-03-28T05:34:35.050Z,98047.92
2023-03-28T05:35:38.237Z,98046.25
2023-03-28T05:36:41.071Z,98050.59
2023-03-28T05:37:46.951Z,98046.08
2023-03-28T05:38:49.979Z,98055.73
2023-03-28T05:39:52.740Z,98050.39
2023-03-28T05:40:55.208Z,98045.05
2023-03-28T05:41:59.258Z,98045.88
2023-03-28T05:43:01.466Z,98046.91
2023-03-28T05:44:03.942Z,98052.06
2023-03-28T05:45:09.898Z,98051.42
2023-03-28T05:46:15.562Z,98049.59
2023-03-28T05:47:19.392Z,98047.92
2023-03-28T05:48:21.729Z,98041.73
2023-03-28T05:49:24.797Z,98050.59
2023-03-28T05:50:27.884Z,98040.73
2023-03-28T05:51:32.567Z,98042.57
2023-03-28T05:52:57.293Z,98038.23
2023-03-28T05:53:59.510Z,98042.57
2023-03-28T05:55:01.962Z,98045.05
2023-03-28T05:56:08.289Z,98041.37
2023-03-28T05:57:10.482Z,98048.55
2023-03-28T05:58:13.373Z,98043.20
2023-03-28T05:59:16.237Z,98046.71
2023-03-28T06:00:20.683Z,98036.85
2023-03-28T06:01:24.955Z,98041.37
2023-03-28T06:02:28.855Z,98041.37
2023-03-28T06:03:33.011Z,98042.20
2023-03-28T06:04:37.009Z,98036.65
2023-03-28T06:05:39.744Z,98027.83
2023-03-28T06:06:48.940Z,98029.67
2023-03-28T06:07:53.066Z,98025.95
2023-03-28T06:08:56.481Z,98036.65
2023-03-28T06:09:59.205Z,98020.61
2023-03-28T06:11:02.584Z,98023.28
2023-03-28T06:12:21.916Z,98024.12
2023-03-28T06:13:25.965Z,98023.95
2023-03-28T06:14:48.242Z,98021.27
2023-03-28T06:15:59.106Z,98023.95
2023-03-28T06:17:06.675Z,98018.40
2023-03-28T06:18:11.301Z,98020.23
2023-03-28T06:19:18.321Z,98011.59
2023-03-28T06:20:23.074Z,98012.42
2023-03-28T06:21:27.337Z,98010.58
2023-03-28T06:22:30.818Z,98008.71
2023-03-28T06:23:34.678Z,98001.53
2023-03-28T06:24:37.669Z,98007.70
2023-03-28T06:25:39.872Z,98000.52
2023-03-28T06:26:43.128Z,97997.84
2023-03-28T06:27:48.158Z,98002.36
2023-03-28T06:28:50.476Z,98004.03
2023-03-28T06:29:54.591Z,97996.01
2023-03-28T06:30:57.664Z,97996.64
2023-03-28T06:32:01.371Z,97993.76
2023-03-28T06:34:12.881Z,97985.89
2023-03-28T06:35:30.453Z,97991.92
2023-03-28T06:36:32.961Z,97993.38
2023-03-28T06:37:35.989Z,97986.83
2023-03-28T06:38:40.242Z,97979.63
2023-03-28T06:39:44.086Z,97975.95
2023-03-28T06:41:55.237Z,97981.21
2023-03-28T06:42:59.425Z,97976.96
2023-03-28T06:44:04.648Z,97973.28
2023-03-28T06:45:25.231Z,97969.56
2023-03-28T06:46:29.493Z,97965.72
2023-03-28T06:47:31.760Z,97963.04
2023-03-28T06:48:36.256Z,97964.67
2023-03-28T06:50:51.938Z,97964.61
2023-03-28T06:51:55.955Z,97965.51
2023-03-28T06:52:58.393Z,97960.78
2023-03-28T06:54:01.474Z,97959.58
2023-03-28T06:55:06.415Z,97963.70
2023-03-28T06:56:11.154Z,97960.86
2023-03-28T06:57:14.390Z,97959.64
2023-03-28T06:58:18.573Z,97954.09
2023-03-28T06:59:22.609Z,97960.09
2023-03-28T07:00:26.859Z,97955.16
2023-03-28T07:01:48.332Z,97952.31
2023-03-28T07:02:53.518Z,97962.42
2023-03-28T07:05:08.470Z,97958.66
2023-03-28T07:06:12.124Z,97951.34
2023-03-28T07:07:14.239Z,97948.28
2023-03-28T07:08:18.072Z,97943.55
2023-03-28T07:09:30.828Z,97944.17
2023-03-28T07:10:40.011Z,97933.92
2023-03-28T07:11:42.734Z,97950.63
2023-03-28T07:12:46.962Z,97934.39
2023-03-28T07:13:50.826Z,97919.80
2023-03-28T07:14:55.769Z,97922.09
2023-03-28T07:16:06.075Z,97914.50
2023-03-28T07:17:08.694Z,97925.83
2023-03-28T07:18:14.159Z,97916.58
2023-03-28T07:19:16.520Z,97917.20
2023-03-28T07:20:23.893Z,97906.11
2023-03-28T07:21:26.440Z,97909.22
2023-03-28T07:22:30.572Z,97917.04
2023-03-28T07:23:32.887Z,97917.88
2023-03-28T07:24:36.421Z,97916.65
2023-03-28T07:25:43.505Z,97902.25
2023-03-28T07:26:45.783Z,97911.73
2023-03-28T07:27:48.086Z,97905.16
2023-03-28T07:28:50.390Z,97909.50
2023-03-28T07:29:53.646Z,97930.49
2023-03-28T07:30:57.927Z,97926.59
2023-03-28T07:32:09.100Z,97915.48
2023-03-28T07:33:19.477Z,97910.78
2023-03-28T07:34:17.854Z,97918.61
2023-03-28T07:35:23.954Z,97921.91
2023-03-28T07:36:28.665Z,97920.89
2023-03-28T07:37:34.154Z,97925.84
2023-03-28T07:38:45.424Z,97927.48
2023-03-28T07:39:49.702Z,97919.27
2023-03-28T07:40:54.811Z,97919.05
2023-03-28T07:41:57.160Z,97920.72
2023-03-28T07:43:02.396Z,97923.19
2023-03-28T07:44:04.725Z,97924.02
2023-03-28T07:45:08.898Z,97917.64
2023-03-28T07:46:16.290Z,97926.52
2023-03-28T07:47:18.572Z,97917.64
2023-03-28T07:48:20.952Z,97925.68
2023-03-28T07:49:23.027Z,97903.23
2023-03-28T07:50:26.764Z,97917.64
2023-03-28T07:51:30.993Z,97925.68
2023-03-28T07:52:35.554Z,97911.67
2023-03-28T07:53:38.136Z,97922.38
2023-03-28T07:54:40.491Z,97921.55
2023-03-28T07:55:54.325Z,97920.93
2023-03-28T07:56:54.178Z,97914.74
2023-03-28T07:57:59.979Z,97915.97
2023-03-28T07:59:06.357Z,97913.47
2023-03-28T08:00:29.873Z,97921.91
2023-03-28T08:02:10.636Z,97923.78
2023-03-28T08:03:19.464Z,97934.48
2023-03-28T08:04:22.837Z,97947.22
2023-03-28T08:05:42.720Z,97938.58
2023-03-28T08:06:45.286Z,97941.47
2023-03-28T08:07:47.503Z,97911.57
2023-03-28T08:08:49.730Z,97905.59
2023-03-28T08:09:58.394Z,97951.29
2023-03-28T08:11:03.869Z,97916.88
2023-03-28T08:12:06.956Z,97920.39
2023-03-28T08:13:09.255Z,97917.09
2023-03-28T08:14:16.155Z,97919.77
2023-03-28T08:15:18.470Z,97919.95
2023-03-28T08:16:22.584Z,97912.96
2023-03-28T08:17:29.481Z,97926.34
2023-03-28T08:18:34.221Z,97927.36
2023-03-28T08:19:37.725Z,97912.13
2023-03-28T08:20:50.462Z,97906.95
2023-03-28T08:21:56.264Z,97929.20
2023-03-28T08:23:00.097Z,97921.17
2023-03-28T08:24:34.917Z,97911.51
2023-03-28T08:25:29.011Z,97912.31
2023-03-28T08:26:32.075Z,97907.79
2023-03-28T08:27:36.000Z,97901.60
2023-03-28T08:28:40.029Z,97898.13
2023-03-28T08:29:42.690Z,97902.44
2023-03-28T08:30:45.320Z,97895.45
2023-03-28T08:31:48.047Z,97902.64
2023-03-28T08:32:54.972Z,97898.92
2023-03-28T08:34:00.476Z,97907.79
2023-03-28T08:36:20.316Z,97894.23
2023-03-28T08:37:22.668Z,97898.91
2023-03-28T08:38:24.997Z,97907.77
2023-03-28T08:39:30.475Z,97916.42
2023-03-28T08:40:37.725Z,97895.84
2023-03-28T08:41:47.506Z,97902.83
2023-03-28T08:44:29.396Z,97913.19
2023-03-28T08:45:52.886Z,97905.27
2023-03-28T08:47:13.127Z,97937.39
2023-03-28T08:48:30.532Z,97912.47
2023-03-28T08:49:38.219Z,97918.87
2023-03-28T08:50:53.221Z,97924.40
2023-03-28T08:52:01.289Z,97909.56
2023-03-28T08:53:14.469Z,97925.83
2023-03-28T08:54:32.832Z,97927.87
2023-03-28T08:55:42.730Z,97920.24
2023-03-28T08:56:51.893Z,97925.77
2023-03-28T08:57:55.163Z,97911.98
2023-03-28T09:00:35.086Z,97933.41
2023-03-28T09:01:39.006Z,97955.08
2023-03-28T09:02:43.299Z,97939.87
2023-03-28T09:03:48.893Z,97932.84
2023-03-28T09:05:05.130Z,97931.22
2023-03-28T09:06:08.266Z,97948.06
2023-03-28T09:07:35.236Z,97934.07
2023-03-28T09:09:07.134Z,97927.47
2023-03-28T09:10:31.074Z,97934.03
2023-03-28T09:11:46.959Z,97953.95
2023-03-28T09:12:58.687Z,97933.97
2023-03-28T09:14:31.827Z,97936.65
2023-03-28T09:16:04.065Z,97937.86
2023-03-28T09:17:25.597Z,97938.04
2023-03-28T09:18:56.498Z,97943.22
2023-03-28T09:21:50.372Z,97928.48
2023-03-28T09:24:42.456Z,97916.71
2023-03-28T09:27:28.621Z,97900.45
2023-03-28T09:28:55.793Z,97908.59
2023-03-28T09:31:14.378Z,97917.72
2023-03-28T09:32:24.537Z,97910.81
2023-03-28T09:33:33.814Z,97913.31
2023-03-28T09:34:39.535Z,97918.25
2023-03-28T09:35:46.646Z,97909.42
2023-03-28T09:36:55.526Z,97897.69
2023-03-28T09:38:05.095Z,97903.03
2023-03-28T09:39:30.541Z,97899.53
2023-03-28T09:40:44.739Z,97904.87
2023-03-28T09:42:15.136Z,97903.86
2023-03-28T09:46:00.020Z,97922.44
2023-03-28T09:47:12.670Z,97904.63
2023-03-28T09:49:34.395Z,97915.42
2023-03-28T09:50:39.980Z,97914.50
2023-03-28T09:51:43.358Z,97913.48
2023-03-28T09:52:48.601Z,97909.59
2023-03-28T09:53:53.004Z,97904.25
2023-03-28T09:54:57.167Z,97913.73
2023-03-28T09:57:16.515Z,97898.20
2023-03-28T09:58:23.148Z,97897.45
2023-03-28T09:59:40.203Z,97908.14
2023-03-28T10:02:04.278Z,97902.05
2023-03-28T10:03:22.970Z,97911.20
2023-03-28T10:04:35.866Z,97895.98
2023-03-28T10:05:52.895Z,97915.53
2023-03-28T10:07:13.193Z,97905.67
2023-03-28T10:08:37.621Z,97894.77
2023-03-28T10:09:54.976Z,97907.31
2023-03-28T10:11:02.944Z,97897.66
2023-03-28T10:12:11.209Z,97901.34
2023-03-28T10:13:13.722Z,97894.32
2023-03-28T10:14:37.886Z,97898.03
2023-03-28T10:15:48.195Z,97900.71
2023-03-28T10:17:22.649Z,97906.89
2023-03-28T10:18:27.738Z,97896.38
2023-03-28T10:20:49.100Z,97887.20
2023-03-28T10:21:53.635Z,97895.50
2023-03-28T10:24:16.243Z,97887.58
2023-03-28T10:26:41.811Z,97891.47
2023-03-28T10:27:48.404Z,97882.52
2023-03-28T10:28:52.668Z,97876.13
2023-03-28T10:29:58.688Z,97877.80
2023-03-28T10:31:05.945Z,97887.48
2023-03-28T10:33:29.853Z,97898.03
2023-03-28T10:36:15.080Z,97870.02
2023-03-28T10:37:27.189Z,97878.95
2023-03-28T10:41:26.272Z,97892.59
2023-03-28T10:42:50.207Z,97875.78
2023-03-28T10:43:56.852Z,97871.90
2023-03-28T10:46:49.770Z,97873.22
2023-03-28T10:47:59.481Z,97868.15
2023-03-28T10:49:05.322Z,97877.83
2023-03-28T10:51:34.008Z,97855.93
2023-03-28T10:52:43.695Z,97865.86
2023-03-28T10:54:08.101Z,97871.20
2023-03-28T10:55:17.775Z,97866.52
2023-03-28T10:56:50.804Z,97867.97
2023-03-28T10:58:05.999Z,97865.30
2023-03-28T10:59:13.788Z,97861.59
2023-03-28T11:02:01.991Z,97863.95
2023-03-28T11:03:08.624Z,97864.02
2023-03-28T11:04:33.438Z,97852.95
2023-03-28T11:06:59.869Z,97851.59
2023-03-28T11:09:51.229Z,97848.09
2023-03-28T11:11:24.432Z,97859.50
2023-03-28T11:12:53.985Z,97860.97
2023-03-28T11:13:54.111Z,97860.76
2023-03-28T11:15:24.874Z,97841.88
2023-03-28T11:17:01.461Z,97856.07
2023-03-28T11:18:37.397Z,97832.02
2023-03-28T11:19:58.374Z,97835.31
2023-03-28T11:21:21.343Z,97838.81
2023-03-28T11:24:04.689Z,97829.62
2023-03-28T11:25:33.775Z,97840.42
2023-03-28T11:27:16.022Z,97838.38
2023-03-28T11:28:25.135Z,97841.88
2023-03-28T11:29:53.396Z,97836.53
2023-03-28T11:31:01.043Z,97834.86
2023-03-28T11:32:30.562Z,97852.73
2023-03-28T11:34:11.786Z,97826.84
2023-03-28T11:35:29.414Z,97839.20
2023-03-28T11:36:52.368Z,97831.19
2023-03-28T11:38:04.578Z,97830.35
2023-03-28T11:39:21.522Z,97825.22
2023-03-28T11:40:47.439Z,97816.37
2023-03-28T11:41:52.758Z,97812.66
2023-03-28T11:43:12.836Z,97809.98
2023-03-28T11:45:52.178Z,97804.11
2023-03-28T11:47:04.878Z,97816.75
2023-03-28T11:48:21.777Z,97824.56
2023-03-28T11:49:27.778Z,97824.56
2023-03-28T11:51:03.479Z,97819.21
2023-03-28T11:52:26.652Z,97826.43
2023-03-28T11:53:45.978Z,97813.69
2023-03-28T11:55:08.336Z,97823.55
2023-03-28T11:59:22.736Z,97807.58
2023-03-28T12:00:42.497Z,97799.85
2023-03-28T12:01:50.160Z,97804.16
2023-03-28T12:02:59.423Z,97807.45
2023-03-28T12:05:50.979Z,97799.95
2023-03-28T12:07:06.553Z,97800.23
2023-03-28T12:08:32.265Z,97806.37
2023-03-28T12:10:10.621Z,97805.37
2023-03-28T12:12:45.652Z,97797.84
2023-03-28T12:14:01.335Z,97800.80
2023-03-28T12:16:19.326Z,97789.58
2023-03-28T12:17:29.312Z,97789.69
2023-03-28T12:18:40.076Z,97783.30
2023-03-28T12:19:46.006Z,97795.45
2023-03-28T12:21:14.802Z,97786.42
2023-03-28T12:24:08.589Z,97782.19
2023-03-28T12:25:26.179Z,97782.09
2023-03-28T12:26:50.062Z,97792.60
2023-03-28T12:28:03.045Z,97794.23
2023-03-28T12:30:47.741Z,97789.20
2023-03-28T12:31:53.973Z,97782.30
2023-03-28T12:33:02.503Z,97782.75
2023-03-28T12:35:37.451Z,97783.02
2023-03-28T12:38:26.000Z,97780.34
2023-03-28T12:39:37.358Z,97775.91
2023-03-28T12:41:02.695Z,97787.88
2023-03-28T12:42:08.320Z,97779.87
2023-03-28T12:43:13.870Z,97783.37
2023-03-28T12:44:26.545Z,97778.86
2023-03-28T12:46:48.956Z,97777.29
2023-03-28T12:47:55.567Z,97781.91
2023-03-28T12:50:32.703Z,97765.77
2023-03-28T12:52:58.770Z,97773.99
2023-03-28T12:54:18.030Z,97781.91
2023-03-28T12:55:29.936Z,97768.17
2023-03-28T12:57:47.140Z,97765.38
2023-03-28T12:58:54.417Z,97774.31
2023-03-28T13:00:22.230Z,97763.25
2023-03-28T13:01:30.521Z,97767.58
2023-03-28T13:02:56.047Z,97775.21
2023-03-28T13:04:08.680Z,97766.16
2023-03-28T13:08:34.710Z,97760.09
2023-03-28T13:10:06.357Z,97761.85
2023-03-28T13:11:21.212Z,97762.30
2023-03-28T13:12:36.133Z,97769.09
2023-03-28T13:13:59.303Z,97769.89
2023-03-28T13:15:17.093Z,97763.75
2023-03-28T13:16:24.945Z,97767.23
2023-03-28T13:17:30.115Z,97766.21
2023-03-28T13:18:36.122Z,97767.87
2023-03-28T13:19:46.968Z,97759.03
2023-03-28T13:22:01.637Z,97756.83
2023-03-28T13:23:09.729Z,97759.63
2023-03-28T13:24:27.753Z,97757.75
2023-03-28T13:25:37.903Z,97756.74
2023-03-28T13:27:01.669Z,97758.20
2023-03-28T13:28:13.736Z,97765.20
2023-03-28T13:29:16.594Z,97753.47
2023-03-28T13:31:34.316Z,97760.13
2023-03-28T13:32:41.568Z,97752.85
2023-03-28T13:35:05.698Z,97750.47
2023-03-28T13:36:11.492Z,97753.06
2023-03-28T13:37:22.566Z,97758.20
2023-03-28T13:38:33.342Z,97750.18
2023-03-28T13:39:35.599Z,97748.13
2023-03-28T13:40:47.783Z,97753.30
2023-03-28T13:41:53.558Z,97752.25
2023-03-28T13:43:00.527Z,97749.58
2023-03-28T13:44:12.480Z,97744.23
2023-03-28T13:46:34.532Z,97749.88
2023-03-28T13:47:39.430Z,97746.29
2023-03-28T13:48:53.984Z,97750.63
2023-03-28T13:50:20.881Z,97750.63
2023-03-28T13:51:25.840Z,97752.91
2023-03-28T13:52:28.514Z,97757.22
2023-03-28T13:53:44.293Z,97757.42
2023-03-28T13:54:35.654Z,97752.91
2023-03-28T13:55:37.956Z,97761.73
2023-03-28T13:56:43.208Z,97756.38
2023-03-28T13:57:45.908Z,97759.89
2023-03-28T13:58:51.602Z,97762.56
2023-03-28T14:03:21.022Z,97763.16
2023-03-28T14:04:32.691Z,97764.81
2023-03-28T14:06:40.955Z,97762.14
2023-03-28T14:09:58.312Z,97769.13
2023-03-28T14:11:02.837Z,97770.96
2023-03-28T14:12:07.837Z,97763.78
2023-03-28T14:14:35.701Z,97768.58
2023-03-28T14:15:39.938Z,97763.37
2023-03-28T14:16:46.837Z,97770.16
2023-03-28T14:17:51.069Z,97765.63
2023-03-28T14:18:54.602Z,97764.61
2023-03-28T14:20:05.693Z,97761.94
2023-03-28T14:21:08.540Z,97755.58
2023-03-28T14:23:32.601Z,97758.33
2023-03-28T14:24:36.083Z,97757.60
2023-03-28T14:25:38.940Z,97757.42
2023-03-28T14:26:42.047Z,97745.69
2023-03-28T14:27:52.501Z,97751.87
2023-03-28T14:29:07.187Z,97756.20
2023-03-28T14:30:28.226Z,97755.99
2023-03-28T14:31:35.863Z,97761.34
2023-03-28T14:32:54.435Z,97752.31
2023-03-28T14:33:57.997Z,97768.34
2023-03-28T14:35:19.824Z,97759.50
2023-03-28T14:36:22.017Z,97761.99
2023-03-28T14:37:25.121Z,97767.52
2023-03-28T14:38:30.257Z,97763.00
2023-03-28T14:39:37.184Z,97763.00
2023-03-28T14:40:42.003Z,97761.34
2023-03-28T14:41:44.094Z,97768.34
2023-03-28T14:42:54.709Z,97775.53
2023-03-28T14:43:57.732Z,97766.69
2023-03-28T14:44:59.864Z,97776.37
2023-03-28T14:46:05.265Z,97779.05
2023-03-28T14:47:10.714Z,97792.20
2023-03-28T14:49:26.377Z,97801.73
2023-03-28T14:50:31.534Z,97801.02
2023-03-28T14:52:48.813Z,97806.63
2023-03-28T14:53:51.813Z,97813.94
2023-03-28T14:54:54.856Z,97807.58
2023-03-28T14:57:17.668Z,97811.73
2023-03-28T14:58:21.515Z,97812.86
2023-03-28T14:59:27.358Z,97818.41
2023-03-28T15:00:39.690Z,97816.75
2023-03-28T15:01:44.108Z,97823.10
2023-03-28T15:02:47.007Z,97822.48
2023-03-28T15:03:58.373Z,97827.20
2023-03-28T15:05:07.416Z,97823.06
2023-03-28T15:06:18.737Z,97824.07
2023-03-28T15:07:28.495Z,97831.25
2023-03-28T15:08:38.748Z,97820.78
2023-03-28T15:09:41.509Z,97824.66
2023-03-28T15:10:49.995Z,97828.34
2023-03-28T15:11:52.091Z,97837.19
2023-03-28T15:13:15.200Z,97837.36
2023-03-28T15:15:36.678Z,97838.27
2023-03-28T15:16:41.427Z,97838.53
2023-03-28T15:17:44.774Z,97843.87
2023-03-28T15:20:01.331Z,97843.91